createdAt,value
2018-04-16T00:04:04.091Z,2.57
2018-04-16T00:06:32.310Z,2.30
2018-04-16T00:09:19.607Z,3.40
2018-04-16T00:11:50.318Z,2.10
2018-04-16T00:14:18.591Z,3.00
2018-04-16T00:16:47.388Z,2.77
2018-04-16T00:22:20.163Z,2.60
2018-04-16T00:25:07.869Z,3.33
2018-04-16T00:27:48.629Z,2.93
2018-04-16T00:30:20.645Z,2.83
2018-04-16T00:32:54.598Z,3.20
2018-04-16T00:38:49.068Z,2.70
2018-04-16T00:41:23.652Z,2.90
2018-04-16T00:46:55.082Z,4.07
2018-04-16T00:52:33.933Z,3.70
2018-04-16T01:00:50.851Z,3.47
2018-04-16T01:06:11.044Z,3.50
2018-04-16T01:08:44.824Z,3.20
2018-04-16T01:11:25.194Z,3.40
2018-04-16T01:17:21.210Z,3.40
2018-04-16T01:20:01.464Z,4.00
2018-04-16T01:25:49.670Z,3.53
2018-04-16T01:28:48.812Z,3.60
2018-04-16T01:37:01.246Z,3.33
2018-04-16T01:39:35.013Z,3.70
2018-04-16T01:42:08.957Z,3.60
2018-04-16T01:44:43.002Z,3.70
2018-04-16T01:47:17.979Z,3.97
2018-04-16T01:55:53.410Z,3.53
2018-04-16T01:58:30.849Z,3.90
2018-04-16T02:01:04.867Z,4.73
2018-04-16T02:06:18.354Z,3.83
2018-04-16T02:12:04.103Z,4.63
2018-04-16T02:14:47.718Z,3.80
2018-04-16T02:17:27.092Z,4.60
2018-04-16T02:28:44.367Z,4.20
2018-04-16T02:34:17.987Z,3.90
2018-04-16T02:36:56.387Z,4.10
2018-04-16T02:39:31.132Z,3.30
2018-04-16T02:42:05.047Z,3.93
2018-04-16T02:47:48.988Z,4.37
2018-04-16T02:50:22.886Z,3.93
2018-04-16T02:52:56.974Z,3.90
2018-04-16T03:01:17.427Z,4.77
2018-04-16T03:04:02.129Z,4.10
2018-04-16T03:10:05.338Z,4.00
2018-04-16T03:12:39.254Z,4.00
2018-04-16T03:18:15.616Z,4.53
2018-04-16T03:20:49.563Z,4.00
2018-04-16T03:29:37.787Z,4.60
2018-04-16T03:32:11.663Z,4.00
2018-04-16T03:34:56.297Z,4.40
2018-04-16T03:40:54.896Z,4.97
2018-04-16T03:43:28.770Z,4.67
2018-04-16T03:50:56.028Z,4.67
2018-04-16T03:56:38.809Z,4.43
2018-04-16T03:59:19.597Z,5.07
2018-04-16T04:01:48.070Z,4.40
2018-04-16T04:04:20.454Z,4.50
2018-04-16T04:10:01.918Z,4.93
2018-04-16T04:12:30.445Z,5.40
2018-04-16T04:14:59.022Z,5.63
2018-04-16T04:17:49.724Z,5.50
2018-04-16T04:20:20.029Z,5.47
2018-04-16T04:23:02.805Z,5.03
2018-04-16T04:25:49.071Z,5.47
2018-04-16T04:37:20.041Z,5.90
2018-04-16T04:42:34.586Z,5.10
2018-04-16T04:45:15.336Z,5.53
2018-04-16T04:50:46.858Z,4.83
2018-04-16T04:53:15.357Z,4.97
2018-04-16T04:55:43.891Z,5.27
2018-04-16T04:58:12.467Z,4.90
2018-04-16T05:00:40.928Z,5.93
2018-04-16T05:03:11.853Z,4.70
2018-04-16T05:05:40.456Z,5.50
2018-04-16T05:08:14.311Z,5.40
2018-04-16T05:10:42.783Z,4.93
2018-04-16T05:13:11.480Z,5.03
2018-04-16T05:15:39.950Z,4.83
2018-04-16T05:18:08.504Z,5.27
2018-04-16T05:20:37.587Z,5.23
2018-04-16T05:23:06.809Z,4.90
2018-04-16T05:25:43.443Z,4.47
2018-04-16T05:28:12.851Z,5.07
2018-04-16T05:30:47.704Z,5.10
2018-04-16T05:33:23.843Z,5.90
2018-04-16T05:35:55.753Z,5.70
2018-04-16T05:38:26.728Z,4.63
2018-04-16T05:40:56.110Z,4.60
2018-04-16T05:43:24.706Z,4.07
2018-04-16T05:45:53.342Z,4.70
2018-04-16T05:48:21.929Z,4.27
2018-04-16T05:50:50.653Z,4.17
2018-04-16T05:53:19.369Z,4.20
2018-04-16T05:55:48.059Z,4.40
2018-04-16T05:58:17.246Z,4.70
2018-04-16T06:00:45.699Z,4.17
2018-04-16T06:03:20.624Z,4.60
2018-04-16T06:05:50.838Z,4.40
2018-04-16T06:08:33.496Z,4.80
2018-04-16T06:11:03.635Z,4.70
2018-04-16T06:13:32.269Z,4.50
2018-04-16T06:16:00.606Z,4.60
2018-04-16T06:21:26.069Z,4.40
2018-04-16T06:23:59.418Z,3.80
2018-04-16T06:26:27.878Z,5.20
2018-04-16T06:28:56.356Z,4.57
2018-04-16T06:31:25.039Z,4.23
2018-04-16T06:33:53.581Z,4.70
2018-04-16T06:36:22.046Z,3.50
2018-04-16T06:38:56.734Z,4.63
2018-04-16T06:41:32.356Z,4.50
2018-04-16T06:44:01.127Z,3.73
2018-04-16T06:46:29.626Z,5.17
2018-04-16T06:48:59.076Z,4.07
2018-04-16T06:51:27.383Z,4.67
2018-04-16T06:53:56.085Z,4.30
2018-04-16T06:56:24.466Z,5.63
2018-04-16T06:58:54.252Z,4.60
2018-04-16T07:01:23.022Z,5.27
2018-04-16T07:03:55.261Z,5.20
2018-04-16T07:06:24.683Z,6.10
2018-04-16T07:08:53.357Z,7.13
2018-04-16T07:11:23.883Z,7.47
2018-04-16T07:13:53.200Z,6.43
2018-04-16T07:16:21.445Z,6.87
2018-04-16T07:18:49.734Z,6.80
2018-04-16T07:21:19.011Z,7.00
2018-04-16T07:23:48.403Z,7.33
2018-04-16T07:26:16.583Z,7.27
2018-04-16T07:28:45.044Z,7.03
2018-04-16T07:31:13.545Z,8.17
2018-04-16T07:33:42.074Z,8.00
2018-04-16T07:36:10.790Z,9.70
2018-04-16T07:38:39.280Z,7.47
2018-04-16T07:41:07.729Z,7.70
2018-04-16T07:43:37.075Z,8.07
2018-04-16T07:46:05.322Z,7.20
2018-04-16T07:48:33.820Z,6.37
2018-04-16T07:51:03.104Z,6.60
2018-04-16T07:53:31.704Z,7.53
2018-04-16T07:56:00.207Z,6.57
2018-04-16T07:58:29.477Z,5.83
2018-04-16T08:00:57.605Z,6.50
2018-04-16T08:03:26.086Z,6.27
2018-04-16T08:05:54.616Z,7.73
2018-04-16T08:08:25.514Z,5.63
2018-04-16T08:10:53.760Z,4.27
2018-04-16T08:13:22.812Z,5.87
2018-04-16T08:15:51.348Z,4.80
2018-04-16T08:18:20.670Z,5.07
2018-04-16T08:20:49.377Z,6.53
2018-04-16T08:23:18.599Z,4.67
2018-04-16T08:25:47.128Z,4.03
2018-04-16T08:30:48.265Z,5.80
2018-04-16T08:33:16.813Z,5.27
2018-04-16T08:35:45.082Z,5.00
2018-04-16T08:38:13.837Z,5.50
2018-04-16T08:40:41.982Z,3.80
2018-04-16T08:43:10.758Z,4.37
2018-04-16T08:45:39.432Z,4.10
2018-04-16T08:48:07.968Z,3.80
2018-04-16T08:50:36.483Z,4.47
2018-04-16T08:53:05.030Z,3.77
2018-04-16T08:55:33.525Z,4.73
2018-04-16T08:58:02.037Z,4.50
2018-04-16T09:00:30.527Z,4.33
2018-04-16T09:02:59.050Z,3.33
2018-04-16T09:05:32.267Z,3.90
2018-04-16T09:08:04.957Z,3.40
2018-04-16T09:10:34.999Z,5.10
2018-04-16T09:13:03.634Z,3.73
2018-04-16T09:15:37.779Z,4.03
2018-04-16T09:18:06.720Z,3.30
2018-04-16T09:20:35.060Z,3.37
2018-04-16T09:23:04.187Z,3.57
2018-04-16T09:25:32.628Z,3.73
2018-04-16T09:28:01.110Z,3.03
2018-04-16T09:30:29.833Z,3.17
2018-04-16T09:33:06.211Z,3.57
2018-04-16T09:35:36.363Z,3.57
2018-04-16T09:38:05.222Z,3.33
2018-04-16T09:40:33.871Z,2.80
2018-04-16T09:43:02.463Z,3.17
2018-04-16T09:45:31.719Z,3.37
2018-04-16T09:48:01.611Z,4.83
2018-04-16T09:50:30.991Z,3.80
2018-04-16T09:53:01.837Z,3.97
2018-04-16T09:55:32.420Z,4.10
2018-04-16T09:58:01.836Z,3.47
2018-04-16T10:00:30.865Z,3.23
2018-04-16T10:03:02.535Z,3.00
2018-04-16T10:05:31.365Z,3.40
2018-04-16T10:08:02.851Z,2.87
2018-04-16T10:10:31.727Z,2.90
2018-04-16T10:13:00.061Z,3.90
2018-04-16T10:15:29.361Z,3.70
2018-04-16T10:17:57.933Z,2.83
2018-04-16T10:20:26.597Z,2.60
2018-04-16T10:22:55.090Z,2.40
2018-04-16T10:25:23.622Z,3.37
2018-04-16T10:27:52.262Z,2.60
2018-04-16T10:30:20.793Z,3.10
2018-04-16T10:32:49.714Z,3.30
2018-04-16T10:35:18.218Z,2.63
2018-04-16T10:40:19.393Z,3.43
2018-04-16T10:42:47.896Z,3.53
2018-04-16T10:45:16.404Z,3.80
2018-04-16T10:47:44.918Z,2.47
2018-04-16T10:50:13.428Z,3.23
2018-04-16T10:52:41.683Z,3.07
2018-04-16T10:55:10.960Z,3.13
2018-04-16T10:57:39.466Z,3.50
2018-04-16T11:00:08.928Z,5.50
2018-04-16T11:02:38.872Z,3.93
2018-04-16T11:05:07.131Z,3.13
2018-04-16T11:07:35.653Z,3.73
2018-04-16T11:10:03.804Z,3.50
2018-04-16T11:12:32.290Z,3.23
2018-04-16T11:15:00.997Z,3.13
2018-04-16T11:17:29.168Z,2.33
2018-04-16T11:19:57.676Z,2.80
2018-04-16T11:22:26.279Z,3.17
2018-04-16T11:24:54.824Z,3.50
2018-04-16T11:27:23.298Z,4.50
2018-04-16T11:29:51.545Z,3.60
2018-04-16T11:32:20.091Z,3.70
2018-04-16T11:34:48.754Z,3.90
2018-04-16T11:37:18.368Z,2.90
2018-04-16T11:39:46.953Z,3.57
2018-04-16T11:42:15.495Z,2.60
2018-04-16T11:44:45.342Z,2.70
2018-04-16T11:47:14.159Z,2.77
2018-04-16T11:49:43.622Z,4.27
2018-04-16T11:52:13.495Z,4.87
2018-04-16T11:54:42.101Z,3.47
2018-04-16T11:57:10.619Z,3.87
2018-04-16T11:59:40.176Z,4.00
2018-04-16T12:02:09.636Z,3.80
2018-04-16T12:04:38.397Z,3.90
2018-04-16T12:07:07.120Z,4.93
2018-04-16T12:09:35.619Z,4.17
2018-04-16T12:12:04.460Z,4.10
2018-04-16T12:14:33.849Z,7.00
2018-04-16T12:17:03.275Z,4.80
2018-04-16T12:19:31.765Z,4.27
2018-04-16T12:22:00.342Z,5.20
2018-04-16T12:24:29.146Z,4.60
2018-04-16T12:26:57.676Z,4.23
2018-04-16T12:29:27.558Z,3.93
2018-04-16T12:31:56.104Z,4.77
2018-04-16T12:34:24.748Z,3.90
2018-04-16T12:36:53.505Z,4.50
2018-04-16T12:39:22.883Z,6.20
2018-04-16T12:41:51.374Z,5.60
2018-04-16T12:44:20.320Z,4.03
2018-04-16T12:46:48.920Z,4.00
2018-04-16T12:49:18.224Z,5.67
2018-04-16T12:51:47.514Z,5.43
2018-04-16T12:54:16.023Z,4.40
2018-04-16T12:56:45.752Z,4.30
2018-04-16T12:59:15.125Z,4.30
2018-04-16T13:01:43.930Z,4.73
2018-04-16T13:04:12.484Z,4.10
2018-04-16T13:06:41.197Z,3.70
2018-04-16T13:09:09.798Z,4.20
2018-04-16T13:11:54.170Z,5.00
2018-04-16T13:14:23.702Z,5.20
2018-04-16T13:16:52.493Z,4.80
2018-04-16T13:19:21.015Z,4.60
2018-04-16T13:21:55.663Z,4.93
2018-04-16T13:24:24.303Z,4.83
2018-04-16T13:26:52.876Z,4.23
2018-04-16T13:29:22.186Z,4.40
2018-04-16T13:31:50.709Z,4.10
2018-04-16T13:34:21.305Z,3.93
2018-04-16T13:36:49.915Z,3.67
2018-04-16T13:39:19.139Z,5.20
2018-04-16T13:41:47.638Z,5.20
2018-04-16T13:44:16.370Z,4.10
2018-04-16T13:46:44.992Z,4.87
2018-04-16T13:49:13.740Z,5.27
2018-04-16T13:51:42.602Z,5.23
2018-04-16T13:54:11.134Z,4.07
2018-04-16T13:56:56.450Z,4.90
2018-04-16T13:59:25.707Z,3.63
2018-04-16T14:01:54.270Z,3.60
2018-04-16T14:04:22.836Z,4.53
2018-04-16T14:06:51.368Z,4.53
2018-04-16T14:09:21.729Z,3.70
2018-04-16T14:11:50.288Z,4.90
2018-04-16T14:14:18.806Z,4.90
2018-04-16T14:16:47.141Z,4.20
2018-04-16T14:19:15.725Z,4.33
2018-04-16T14:21:45.901Z,4.93
2018-04-16T14:24:14.490Z,4.30
2018-04-16T14:26:42.886Z,3.77
2018-04-16T14:29:12.716Z,4.27
2018-04-16T14:31:41.289Z,5.00
2018-04-16T14:34:12.427Z,4.90
2018-04-16T14:36:41.898Z,3.93
2018-04-16T14:39:10.403Z,4.30
2018-04-16T14:41:39.349Z,4.17
2018-04-16T14:44:12.728Z,4.90
2018-04-16T14:46:41.238Z,4.77
2018-04-16T14:49:09.870Z,4.20
2018-04-16T14:51:39.765Z,3.60
2018-04-16T14:54:08.476Z,4.20
2018-04-16T14:56:37.536Z,4.60
2018-04-16T14:59:06.600Z,3.53
2018-04-16T15:01:35.133Z,5.20
2018-04-16T15:04:03.332Z,4.20
2018-04-16T15:06:32.043Z,5.20
2018-04-16T15:09:00.605Z,3.90
2018-04-16T15:11:29.106Z,4.87
2018-04-16T15:13:57.678Z,4.10
2018-04-16T15:19:22.576Z,3.90
2018-04-16T15:21:54.204Z,3.80
2018-04-16T15:24:22.835Z,4.40
2018-04-16T15:26:52.471Z,4.80
2018-04-16T15:29:27.883Z,4.50
2018-04-16T15:32:13.044Z,3.70
2018-04-16T15:34:41.539Z,5.00
2018-04-16T15:40:12.734Z,4.30
2018-04-16T15:42:43.646Z,3.47
2018-04-16T15:45:12.058Z,3.50
2018-04-16T15:47:40.538Z,4.00
2018-04-16T15:50:08.934Z,4.23
2018-04-16T15:52:42.918Z,3.73
2018-04-16T15:55:26.713Z,4.17
2018-04-16T15:58:20.832Z,3.63
2018-04-16T16:00:58.443Z,3.23
2018-04-16T16:03:50.630Z,4.20
2018-04-16T16:06:19.111Z,3.53
2018-04-16T16:08:48.393Z,3.57
2018-04-16T16:11:26.588Z,4.13
2018-04-16T16:13:55.126Z,4.87
2018-04-16T16:16:30.247Z,3.80
2018-04-16T16:19:10.366Z,5.00
2018-04-16T16:21:39.599Z,4.80
2018-04-16T16:24:35.211Z,3.90
2018-04-16T16:27:05.926Z,4.17
2018-04-16T16:29:37.350Z,4.00
2018-04-16T16:32:07.711Z,3.70
2018-04-16T16:34:36.228Z,3.53
2018-04-16T16:37:08.158Z,3.63
2018-04-16T16:42:18.724Z,2.97
2018-04-16T16:44:48.044Z,4.10
2018-04-16T16:47:24.645Z,3.17
2018-04-16T16:49:53.174Z,3.50
2018-04-16T16:52:21.755Z,3.97
2018-04-16T16:54:50.260Z,3.77
2018-04-16T16:57:18.718Z,4.03
2018-04-16T16:59:47.699Z,3.63
2018-04-16T17:02:17.530Z,3.50
2018-04-16T17:04:46.077Z,3.93
2018-04-16T17:07:14.625Z,4.17
2018-04-16T17:09:43.182Z,4.13
2018-04-16T17:12:11.652Z,5.00
2018-04-16T17:14:40.391Z,4.93
2018-04-16T17:17:09.001Z,4.93
2018-04-16T17:19:37.606Z,4.17
2018-04-16T17:22:06.342Z,5.03
2018-04-16T17:24:36.833Z,4.13
2018-04-16T17:27:05.605Z,4.93
2018-04-16T17:29:34.089Z,4.03
2018-04-16T17:32:02.626Z,5.40
2018-04-16T17:34:31.609Z,4.90
2018-04-16T17:37:00.239Z,5.57
2018-04-16T17:39:28.789Z,4.27
2018-04-16T17:41:57.415Z,5.20
2018-04-16T17:44:25.995Z,5.00
2018-04-16T17:46:54.679Z,4.17
2018-04-16T17:49:23.266Z,4.97
2018-04-16T17:51:52.028Z,4.33
2018-04-16T17:54:21.803Z,5.03
2018-04-16T17:56:50.352Z,4.83
2018-04-16T17:59:18.920Z,4.40
2018-04-16T18:01:48.165Z,3.97
2018-04-16T18:04:19.313Z,4.70
2018-04-16T18:07:05.375Z,4.27
2018-04-16T18:09:37.059Z,4.43
2018-04-16T18:12:05.725Z,4.13
2018-04-16T18:14:34.312Z,3.67
2018-04-16T18:17:14.803Z,4.87
2018-04-16T18:19:45.375Z,4.80
2018-04-16T18:22:17.339Z,4.37
2018-04-16T18:24:46.477Z,3.20
2018-04-16T18:27:19.620Z,3.37
2018-04-16T18:32:41.561Z,3.40
2018-04-16T18:35:15.569Z,2.67
2018-04-16T18:37:49.830Z,3.83
2018-04-16T18:45:36.942Z,3.03
2018-04-16T18:48:19.361Z,4.97
2018-04-16T18:53:55.876Z,3.80
2018-04-16T18:59:43.497Z,3.90
2018-04-16T19:02:12.057Z,3.33
2018-04-16T19:04:43.766Z,3.80
2018-04-16T19:07:19.390Z,3.53
2018-04-16T19:09:48.958Z,3.50
2018-04-16T19:12:18.697Z,4.07
2018-04-16T19:14:47.263Z,3.30
2018-04-16T19:17:21.399Z,3.30
2018-04-16T19:25:05.335Z,4.10
2018-04-16T19:27:39.271Z,4.07
2018-04-16T19:30:09.133Z,3.80
2018-04-16T19:32:59.343Z,3.67
2018-04-16T19:35:28.044Z,4.83
2018-04-16T19:37:57.264Z,3.90
2018-04-16T19:40:26.739Z,3.90
2018-04-16T19:42:55.228Z,4.27
2018-04-16T19:45:24.723Z,3.77
2018-04-16T19:47:53.476Z,3.83
2018-04-16T19:50:23.163Z,4.80
2018-04-16T19:52:51.953Z,4.70
2018-04-16T19:55:22.209Z,9.43
2018-04-16T19:57:56.272Z,7.80
2018-04-16T20:00:31.117Z,8.73
2018-04-16T20:03:08.511Z,8.90
2018-04-16T20:05:36.935Z,9.13
2018-04-16T20:08:05.439Z,7.93
2018-04-16T20:10:36.069Z,7.23
2018-04-16T20:13:04.724Z,6.70
2018-04-16T20:15:40.732Z,6.90
2018-04-16T20:18:09.476Z,6.87
2018-04-16T20:20:46.124Z,6.90
2018-04-16T20:23:14.622Z,8.20
2018-04-16T20:25:45.085Z,7.47
2018-04-16T20:28:17.394Z,8.83
2018-04-16T20:30:49.124Z,7.60
2018-04-16T20:33:17.850Z,6.10
2018-04-16T20:35:46.123Z,8.73
2018-04-16T20:38:14.712Z,8.33
2018-04-16T20:40:43.209Z,7.77
2018-04-16T20:43:11.774Z,6.80
2018-04-16T20:45:40.430Z,6.50
2018-04-16T20:48:13.593Z,5.53
2018-04-16T20:50:42.142Z,5.40
2018-04-16T20:53:10.992Z,5.47
2018-04-16T20:55:42.547Z,6.27
2018-04-16T20:58:11.375Z,5.40
2018-04-16T21:00:40.180Z,5.90
2018-04-16T21:03:11.070Z,7.07
2018-04-16T21:05:42.620Z,5.50
2018-04-16T21:08:12.496Z,4.40
2018-04-16T21:10:42.467Z,5.10
2018-04-16T21:13:12.164Z,5.40
2018-04-16T21:15:45.260Z,4.83
2018-04-16T21:18:14.659Z,5.77
2018-04-16T21:20:43.218Z,5.07
2018-04-16T21:23:12.517Z,5.50
2018-04-16T21:25:41.696Z,5.53
2018-04-16T21:28:10.994Z,5.13
2018-04-16T21:30:39.465Z,7.50
2018-04-16T21:33:07.976Z,5.27
2018-04-16T21:35:36.518Z,5.27
2018-04-16T21:38:05.813Z,5.47
2018-04-16T21:40:34.314Z,6.30
2018-04-16T21:43:02.787Z,6.33
2018-04-16T21:45:31.055Z,5.27
2018-04-16T21:47:59.622Z,5.03
2018-04-16T21:50:28.163Z,5.10
2018-04-16T21:52:56.680Z,5.40
2018-04-16T21:55:25.217Z,4.90
2018-04-16T21:58:06.901Z,5.20
2018-04-16T22:00:35.602Z,5.50
2018-04-16T22:03:04.555Z,5.30
2018-04-16T22:05:40.521Z,5.43
2018-04-16T22:08:09.034Z,4.73
2018-04-16T22:10:59.728Z,4.30
2018-04-16T22:13:28.235Z,5.10
2018-04-16T22:16:09.824Z,4.57
2018-04-16T22:18:39.390Z,5.67
2018-04-16T22:21:07.943Z,7.00
2018-04-16T22:23:37.343Z,5.13
2018-04-16T22:26:05.830Z,4.47
2018-04-16T22:28:34.391Z,6.67
2018-04-16T22:31:11.652Z,5.30
2018-04-16T22:33:39.990Z,5.33
2018-04-16T22:36:08.731Z,4.90
2018-04-16T22:38:37.340Z,5.63
2018-04-16T22:41:05.897Z,5.77
2018-04-16T22:43:34.438Z,6.00
2018-04-16T22:46:08.555Z,4.50
2018-04-16T22:48:41.045Z,4.93
2018-04-16T22:51:09.480Z,4.93
2018-04-16T22:53:41.168Z,4.90
2018-04-16T22:56:11.274Z,4.80
2018-04-16T22:58:39.776Z,6.10
2018-04-16T23:01:10.518Z,5.00
2018-04-16T23:03:39.044Z,4.90
2018-04-16T23:06:07.524Z,5.40
2018-04-16T23:08:36.905Z,5.90
2018-04-16T23:11:05.565Z,5.10
2018-04-16T23:13:34.136Z,4.60
2018-04-16T23:16:09.070Z,4.90
2018-04-16T23:18:38.232Z,4.40
2018-04-16T23:21:06.803Z,5.23
2018-04-16T23:23:35.295Z,4.73
2018-04-16T23:26:06.937Z,5.77
2018-04-16T23:28:35.689Z,5.10
2018-04-16T23:31:06.297Z,5.17
2018-04-16T23:33:34.958Z,4.90
2018-04-16T23:36:03.465Z,5.80
2018-04-16T23:38:32.008Z,6.40
2018-04-16T23:41:00.800Z,5.57
2018-04-16T23:43:30.033Z,5.93
2018-04-16T23:45:58.566Z,5.20
2018-04-16T23:48:27.114Z,4.77
2018-04-16T23:50:55.709Z,5.57
2018-04-16T23:53:24.211Z,4.83
2018-04-16T23:55:52.741Z,5.80
2018-04-16T23:58:21.224Z,5.70
